CheckWX is a tool to help pilots better visualize weather data.  It is not intended as a substitute for an official pre-flight weather briefing.

18:02:03 UTC

LDSP TAF
Split Airport
Split, Croatia
TAF LDSP 052325Z 0600/0700 06008KT CAVOK TX21/0612Z TN13/0604Z BECMG 0609/0611 23010KT BECMG 0616/0618 34008KT

Apr-6@
00:00 UTC

Apr-6 @ 00:00 UTC

Apr-6@
09:00 UTC

Apr-6 @ 09:00 UTC

TAF LDSP 052325Z 0600/0700 06008KT CAVOK TX21/0612Z TN13/0604Z

Expired

Wind
  • 060° at 8 KTS
Cloud Levels
  • No significant clouds

Apr-6@
09:00 UTC

Apr-6 @ 09:00 UTC

Apr-6@
16:00 UTC

Apr-6 @ 16:00 UTC

BECMG 0609/0611 23010KT

Expired

Wind
  • 230° at 10 KTS
Cloud Levels
  • No significant clouds

Apr-6@
16:00 UTC

Apr-6 @ 16:00 UTC

Apr-7@
00:00 UTC

Apr-7 @ 00:00 UTC

BECMG 0616/0618 34008KT

Becoming

Becoming Conditions expected by Mon, Apr 6, 2020 @ 18:00 UTC

Wind
  • 340° at 8 KTS
Cloud Levels
  • No significant clouds